Time;durP1;ratioP1;P1;durP2;ratioP2;P2;SDS_P1;SDS_P2;PMS_P1;PMS_P2;Temp;Humidity;BMP_temperature;BMP_pressure;BME280_temperature;BME280_humidity;BME280_pressure;Samples;Min_cycle;Max_cycle;Signal;HPM_P1;HPM_P2
2021/12/23 00:01:57;;;;;;;41.63;21.67;;;;;;;;;;5002928;28;20025;-75
2021/12/23 00:04:22;;;;;;;43.23;21.70;;;;;;;;;;5006109;28;20026;-76
2021/12/23 00:06:47;;;;;;;39.33;21.20;;;;;;;;;;5006210;28;20073;-76
2021/12/23 00:09:13;;;;;;;46.37;22.23;;;;;;;;;;5001514;28;20058;-75
2021/12/23 00:11:39;;;;;;;43.67;22.40;;;;;;;;;;5005784;28;20208;-75
2021/12/23 00:14:08;;;;;;;45.47;22.30;;;;;;;;;;5002782;28;20143;-76
2021/12/23 00:16:45;;;;;;;40.07;21.97;;;;;;;;;;5001375;28;20394;-76
2021/12/23 00:19:23;;;;;;;44.67;22.90;;;;;;;;;;5014300;28;20052;-76
2021/12/23 00:24:33;;;;;;;42.57;21.67;;;;;;;;;;5024110;28;20048;-75
2021/12/23 00:26:58;;;;;;;43.47;20.67;;;;;;;;;;5021242;28;20022;-74
2021/12/23 00:29:24;;;;;;;42.33;22.17;;;;;;;;;;5026654;28;20029;-75
2021/12/23 00:31:49;;;;;;;44.87;22.87;;;;;;;;;;5027879;28;20144;-76
2021/12/23 00:34:14;;;;;;;44.53;23.13;;;;;;;;;;5019899;28;20112;-75
2021/12/23 00:36:43;;;;;;;42.00;22.50;;;;;;;;;;5025707;28;20037;-74
2021/12/23 00:39:09;;;;;;;43.10;22.55;;;;;;;;;;5025960;28;20017;-75
2021/12/23 00:41:34;;;;;;;43.63;22.90;;;;;;;;;;5026760;28;20026;-74
2021/12/23 00:43:59;;;;;;;42.47;22.20;;;;;;;;;;5032422;28;20085;-76
2021/12/23 00:46:25;;;;;;;46.47;21.23;;;;;;;;;;5024901;28;20030;-76
2021/12/23 00:48:50;;;;;;;40.70;20.80;;;;;;;;;;5026429;28;20021;-75
2021/12/23 00:51:15;;;;;;;43.20;22.37;;;;;;;;;;5021633;28;20363;-76
2021/12/23 00:53:41;;;;;;;39.67;20.53;;;;;;;;;;5027025;28;20025;-76
2021/12/23 00:56:07;;;;;;;42.90;21.47;;;;;;;;;;5023935;28;20037;-74
2021/12/23 00:58:32;;;;;;;40.53;21.63;;;;;;;;;;5024107;28;20075;-75
2021/12/23 01:01:01;;;;;;;39.47;19.97;;;;;;;;;;5027227;28;20029;-75
2021/12/23 01:03:26;;;;;;;36.72;19.83;;;;;;;;;;5027762;28;20488;-75
2021/12/23 01:05:51;;;;;;;40.73;22.10;;;;;;;;;;5021143;28;20050;-76
2021/12/23 01:08:19;;;;;;;39.67;22.50;;;;;;;;;;5021161;28;20065;-76
2021/12/23 01:10:44;;;;;;;40.00;21.30;;;;;;;;;;5020393;28;20033;-76
2021/12/23 01:13:13;;;;;;;38.43;19.77;;;;;;;;;;5027349;28;20033;-77
2021/12/23 01:15:57;;;;;;;41.15;19.80;;;;;;;;;;5027893;28;20018;-76
2021/12/23 01:18:23;;;;;;;37.43;19.23;;;;;;;;;;5021169;28;20063;-76
2021/12/23 01:20:52;;;;;;;39.50;20.37;;;;;;;;;;5023669;28;20025;-75
2021/12/23 01:23:19;;;;;;;37.38;19.63;;;;;;;;;;5027657;28;20029;-75
2021/12/23 01:25:44;;;;;;;37.57;20.53;;;;;;;;;;5028310;28;20087;-76
2021/12/23 01:28:09;;;;;;;36.03;18.93;;;;;;;;;;5024423;28;20026;-75
2021/12/23 01:30:37;;;;;;;37.70;19.70;;;;;;;;;;5028111;28;20029;-75
2021/12/23 01:33:03;;;;;;;42.27;20.20;;;;;;;;;;5022969;28;20057;-78
2021/12/23 01:35:28;;;;;;;36.27;19.37;;;;;;;;;;5020278;28;20068;-76
2021/12/23 01:37:54;;;;;;;36.47;18.60;;;;;;;;;;5026530;28;20040;-75
2021/12/23 01:40:19;;;;;;;39.67;19.90;;;;;;;;;;5029832;28;20033;-73
2021/12/23 01:42:45;;;;;;;43.97;19.80;;;;;;;;;;5026078;28;20032;-76
2021/12/23 01:45:14;;;;;;;41.27;19.20;;;;;;;;;;5030203;28;20236;-75
2021/12/23 01:47:40;;;;;;;38.77;20.00;;;;;;;;;;5034258;28;20029;-75
2021/12/23 01:50:06;;;;;;;39.13;20.30;;;;;;;;;;5031106;28;20508;-75
2021/12/23 01:52:31;;;;;;;43.80;20.60;;;;;;;;;;5027601;28;20491;-75
2021/12/23 01:54:56;;;;;;;39.60;18.03;;;;;;;;;;5026666;28;20025;-75
2021/12/23 01:57:22;;;;;;;36.77;18.80;;;;;;;;;;5031594;28;20056;-75
2021/12/23 01:59:48;;;;;;;37.27;18.60;;;;;;;;;;5027941;28;20025;-75
2021/12/23 02:02:13;;;;;;;36.03;19.50;;;;;;;;;;5026360;28;20041;-73
2021/12/23 02:04:38;;;;;;;31.80;18.07;;;;;;;;;;5023998;28;20359;-75
2021/12/23 02:07:03;;;;;;;35.77;17.60;;;;;;;;;;5027993;28;20054;-75
2021/12/23 02:09:29;;;;;;;32.57;17.83;;;;;;;;;;5024197;28;20017;-76
2021/12/23 02:11:55;;;;;;;35.33;17.73;;;;;;;;;;5026930;28;20033;-74
2021/12/23 02:14:22;;;;;;;32.90;17.03;;;;;;;;;;5027514;28;20067;-74
2021/12/23 02:16:47;;;;;;;34.10;17.10;;;;;;;;;;5019305;28;20038;-76
2021/12/23 02:19:19;;;;;;;33.03;16.90;;;;;;;;;;5021258;28;20030;-75
2021/12/23 02:21:46;;;;;;;32.53;16.20;;;;;;;;;;5025841;28;20041;-75
2021/12/23 02:24:11;;;;;;;35.70;17.50;;;;;;;;;;5023447;28;20029;-74
2021/12/23 02:26:37;;;;;;;30.77;16.87;;;;;;;;;;5021686;28;20394;-75
2021/12/23 02:29:02;;;;;;;32.10;16.60;;;;;;;;;;5019901;28;20128;-74
2021/12/23 02:31:27;;;;;;;31.80;17.60;;;;;;;;;;5029269;28;20034;-75
2021/12/23 02:33:53;;;;;;;32.40;16.77;;;;;;;;;;5028028;28;20030;-75
2021/12/23 02:36:18;;;;;;;32.67;17.07;;;;;;;;;;5028921;28;20465;-75
2021/12/23 02:38:43;;;;;;;34.63;17.77;;;;;;;;;;5024913;28;20065;-74
2021/12/23 02:41:08;;;;;;;31.93;17.00;;;;;;;;;;5026196;28;20044;-74
2021/12/23 02:43:35;;;;;;;33.43;16.83;;;;;;;;;;5028088;28;20030;-74
2021/12/23 02:46:00;;;;;;;30.00;16.27;;;;;;;;;;5025093;28;20112;-75
2021/12/23 02:48:32;;;;;;;29.97;16.93;;;;;;;;;;5024513;28;20096;-76
2021/12/23 02:50:57;;;;;;;34.17;16.43;;;;;;;;;;5025579;28;20033;-77
2021/12/23 02:53:23;;;;;;;33.23;17.63;;;;;;;;;;5023765;28;20037;-75
2021/12/23 02:55:48;;;;;;;34.87;17.13;;;;;;;;;;5024610;28;20044;-75
2021/12/23 02:58:14;;;;;;;33.13;16.63;;;;;;;;;;5028313;28;20025;-75
2021/12/23 03:00:41;;;;;;;33.07;16.47;;;;;;;;;;5023323;28;20116;-74
2021/12/23 03:03:06;;;;;;;29.97;15.80;;;;;;;;;;5029789;28;20544;-75
2021/12/23 03:05:31;;;;;;;33.97;16.83;;;;;;;;;;5028940;28;20117;-74
2021/12/23 03:07:58;;;;;;;32.37;16.97;;;;;;;;;;5028125;28;20127;-74
2021/12/23 03:10:23;;;;;;;35.80;18.10;;;;;;;;;;5023942;28;20014;-75
2021/12/23 03:12:49;;;;;;;32.67;17.73;;;;;;;;;;5022913;28;20441;-75
2021/12/23 03:15:15;;;;;;;32.03;16.87;;;;;;;;;;5024279;28;20029;-76
2021/12/23 03:17:40;;;;;;;31.67;16.97;;;;;;;;;;5029178;28;20110;-75
2021/12/23 03:20:05;;;;;;;35.30;17.53;;;;;;;;;;5023436;28;20477;-74
2021/12/23 03:22:30;;;;;;;30.30;16.87;;;;;;;;;;5030778;28;20022;-75
2021/12/23 03:24:56;;;;;;;35.67;18.40;;;;;;;;;;5028619;28;20542;-74
2021/12/23 03:27:21;;;;;;;35.07;17.43;;;;;;;;;;5026041;28;20552;-74
2021/12/23 03:29:47;;;;;;;34.33;17.03;;;;;;;;;;5025629;28;20073;-74
2021/12/23 03:32:12;;;;;;;30.77;16.20;;;;;;;;;;5023430;28;20033;-74
2021/12/23 03:34:37;;;;;;;32.50;16.67;;;;;;;;;;5026951;28;20108;-74
2021/12/23 03:37:02;;;;;;;32.33;16.67;;;;;;;;;;5018194;28;20244;-75
2021/12/23 03:39:28;;;;;;;35.33;17.37;;;;;;;;;;5024021;28;20024;-74
2021/12/23 03:41:53;;;;;;;34.07;16.57;;;;;;;;;;5026804;28;20046;-74
2021/12/23 03:44:18;;;;;;;30.93;16.03;;;;;;;;;;5027980;28;20028;-74
2021/12/23 03:46:43;;;;;;;35.67;17.57;;;;;;;;;;5023730;28;20782;-75
2021/12/23 03:49:09;;;;;;;35.00;18.03;;;;;;;;;;5029831;28;20049;-75
2021/12/23 03:51:34;;;;;;;34.93;17.67;;;;;;;;;;5028263;28;20033;-74
2021/12/23 03:53:59;;;;;;;33.53;17.30;;;;;;;;;;5028364;28;20034;-75
2021/12/23 03:56:24;;;;;;;35.60;18.30;;;;;;;;;;5028138;28;20033;-74
2021/12/23 03:58:50;;;;;;;32.80;16.07;;;;;;;;;;5022548;28;20036;-74
2021/12/23 04:01:15;;;;;;;34.90;17.53;;;;;;;;;;5023848;28;20036;-75
2021/12/23 04:03:40;;;;;;;34.80;16.93;;;;;;;;;;5028027;28;20006;-74
2021/12/23 04:06:06;;;;;;;35.23;17.97;;;;;;;;;;5023726;28;20042;-73
2021/12/23 04:08:31;;;;;;;34.90;17.37;;;;;;;;;;5024061;28;20026;-75
2021/12/23 04:10:59;;;;;;;29.90;17.30;;;;;;;;;;5015706;28;20092;-74
2021/12/23 04:13:25;;;;;;;33.50;17.43;;;;;;;;;;5027498;28;20627;-74
2021/12/23 04:15:51;;;;;;;32.60;17.77;;;;;;;;;;5026149;28;20033;-75
2021/12/23 04:18:17;;;;;;;36.27;17.90;;;;;;;;;;5025889;28;20022;-74
2021/12/23 04:20:54;;;;;;;35.33;17.07;;;;;;;;;;5027292;28;20087;-75
2021/12/23 04:23:27;;;;;;;37.33;18.17;;;;;;;;;;5022750;28;20062;-75
2021/12/23 04:25:53;;;;;;;33.37;17.13;;;;;;;;;;5023161;28;20083;-75
2021/12/23 04:28:20;;;;;;;33.50;18.23;;;;;;;;;;5027085;28;20029;-76
2021/12/23 04:30:45;;;;;;;36.63;17.50;;;;;;;;;;5024068;28;20029;-76
2021/12/23 04:33:10;;;;;;;39.20;19.17;;;;;;;;;;5027158;28;20038;-74
2021/12/23 04:35:36;;;;;;;33.23;18.10;;;;;;;;;;5019487;28;20091;-75
2021/12/23 04:38:01;;;;;;;36.23;17.57;;;;;;;;;;5025537;28;20101;-76
2021/12/23 04:40:30;;;;;;;33.63;17.30;;;;;;;;;;5025441;28;20274;-75
2021/12/23 04:42:55;;;;;;;35.87;18.40;;;;;;;;;;5027538;28;20065;-74
2021/12/23 04:45:20;;;;;;;37.40;18.40;;;;;;;;;;5027040;28;21601;-75
2021/12/23 04:47:45;;;;;;;33.63;18.27;;;;;;;;;;5027750;28;20025;-74
2021/12/23 04:50:12;;;;;;;37.70;18.63;;;;;;;;;;5022461;28;20049;-75
2021/12/23 04:52:38;;;;;;;43.67;20.93;;;;;;;;;;5029380;28;20033;-76
2021/12/23 04:55:03;;;;;;;46.83;21.50;;;;;;;;;;5021668;28;20096;-74
2021/12/23 04:57:29;;;;;;;43.97;20.43;;;;;;;;;;5027752;28;20719;-75
2021/12/23 04:59:54;;;;;;;39.27;19.03;;;;;;;;;;5021671;28;20024;-75
2021/12/23 05:02:19;;;;;;;40.80;19.13;;;;;;;;;;5021525;28;20082;-74
2021/12/23 05:04:45;;;;;;;34.20;19.27;;;;;;;;;;5027629;28;20063;-75
2021/12/23 05:07:10;;;;;;;38.27;20.17;;;;;;;;;;5021320;28;20600;-74
2021/12/23 05:09:35;;;;;;;42.93;19.80;;;;;;;;;;5025331;28;20033;-75
2021/12/23 05:12:00;;;;;;;37.93;18.27;;;;;;;;;;5021836;28;20060;-76
2021/12/23 05:14:25;;;;;;;33.00;17.53;;;;;;;;;;5029108;28;20076;-75
2021/12/23 05:16:51;;;;;;;35.90;18.53;;;;;;;;;;5032615;28;20098;-75
2021/12/23 05:19:16;;;;;;;35.73;18.97;;;;;;;;;;5030297;28;20519;-76
2021/12/23 05:21:41;;;;;;;34.60;18.00;;;;;;;;;;5034217;28;20043;-75
2021/12/23 05:24:06;;;;;;;37.27;17.97;;;;;;;;;;5026684;28;20017;-75
2021/12/23 05:26:31;;;;;;;32.87;17.60;;;;;;;;;;5032585;28;20033;-75
2021/12/23 05:28:57;;;;;;;37.70;18.87;;;;;;;;;;5028897;28;20104;-75
2021/12/23 05:31:22;;;;;;;36.50;19.73;;;;;;;;;;5029759;28;20057;-76
2021/12/23 05:33:47;;;;;;;39.67;20.37;;;;;;;;;;5032486;28;20021;-76
2021/12/23 05:36:12;;;;;;;37.20;19.43;;;;;;;;;;5038919;28;20055;-74
2021/12/23 05:38:37;;;;;;;42.33;21.33;;;;;;;;;;5032279;28;20484;-76
2021/12/23 05:41:03;;;;;;;34.87;18.10;;;;;;;;;;5025502;28;20033;-74
2021/12/23 05:43:28;;;;;;;39.07;20.33;;;;;;;;;;5027653;28;20440;-74
2021/12/23 05:45:53;;;;;;;40.07;19.80;;;;;;;;;;5027852;28;20030;-75
2021/12/23 05:48:18;;;;;;;43.33;22.03;;;;;;;;;;5022857;28;20119;-75
2021/12/23 05:50:43;;;;;;;40.40;21.87;;;;;;;;;;5031041;28;20487;-76
2021/12/23 05:53:09;;;;;;;41.73;21.07;;;;;;;;;;5030291;28;20068;-76
2021/12/23 05:55:34;;;;;;;38.57;20.13;;;;;;;;;;5031361;28;20025;-76
2021/12/23 05:57:59;;;;;;;44.30;20.87;;;;;;;;;;5033903;28;20119;-76
2021/12/23 06:00:27;;;;;;;41.07;20.33;;;;;;;;;;5027473;28;20098;-77
2021/12/23 06:02:53;;;;;;;41.27;18.97;;;;;;;;;;5026292;28;20025;-75
2021/12/23 06:05:18;;;;;;;41.80;20.23;;;;;;;;;;5030686;28;20029;-74
2021/12/23 06:07:44;;;;;;;44.33;22.17;;;;;;;;;;5028870;28;20068;-77
2021/12/23 06:10:10;;;;;;;46.03;23.83;;;;;;;;;;5028600;28;20033;-74
2021/12/23 06:12:35;;;;;;;45.73;23.73;;;;;;;;;;5032848;28;20578;-76
2021/12/23 06:15:00;;;;;;;39.77;21.80;;;;;;;;;;5022364;28;20022;-77
2021/12/23 06:17:26;;;;;;;41.53;21.63;;;;;;;;;;5032451;28;20033;-74
2021/12/23 06:19:51;;;;;;;44.73;22.10;;;;;;;;;;5031887;28;20374;-75
2021/12/23 06:22:18;;;;;;;41.97;20.97;;;;;;;;;;5032005;28;20029;-76
2021/12/23 06:24:45;;;;;;;44.30;21.00;;;;;;;;;;5022615;28;20026;-75
2021/12/23 06:27:10;;;;;;;42.87;21.30;;;;;;;;;;5024189;28;20024;-74
2021/12/23 06:29:36;;;;;;;39.87;20.63;;;;;;;;;;5026581;28;20429;-75
2021/12/23 06:32:01;;;;;;;44.57;22.70;;;;;;;;;;5020527;28;20488;-75
2021/12/23 06:34:26;;;;;;;46.80;22.07;;;;;;;;;;5030228;28;20556;-74
2021/12/23 06:36:51;;;;;;;42.97;22.23;;;;;;;;;;5029840;28;20037;-75
2021/12/23 06:39:17;;;;;;;46.60;21.50;;;;;;;;;;5024298;28;20033;-76
2021/12/23 06:41:42;;;;;;;41.50;21.40;;;;;;;;;;5028898;28;20031;-74
2021/12/23 06:44:07;;;;;;;45.87;22.30;;;;;;;;;;5029874;28;20100;-75
2021/12/23 06:46:32;;;;;;;40.67;20.50;;;;;;;;;;5023915;28;20465;-74
2021/12/23 06:48:57;;;;;;;44.70;21.83;;;;;;;;;;5030481;28;20041;-75
2021/12/23 06:51:25;;;;;;;44.30;22.07;;;;;;;;;;5028449;28;20033;-74
2021/12/23 06:53:50;;;;;;;41.03;21.17;;;;;;;;;;5021950;28;20028;-75
2021/12/23 06:56:17;;;;;;;45.57;22.73;;;;;;;;;;5030598;28;20341;-75
2021/12/23 06:58:47;;;;;;;41.93;21.27;;;;;;;;;;5023934;28;20484;-75
2021/12/23 07:01:14;;;;;;;43.50;21.63;;;;;;;;;;5029926;28;20113;-76
2021/12/23 07:06:27;;;;;;;43.73;21.27;;;;;;;;;;5020526;28;20056;-76
2021/12/23 07:08:54;;;;;;;40.00;22.23;;;;;;;;;;5027226;28;20480;-74
2021/12/23 07:11:20;;;;;;;40.47;21.73;;;;;;;;;;5031108;28;20050;-76
2021/12/23 07:13:45;;;;;;;43.80;21.97;;;;;;;;;;5023337;28;20044;-75
2021/12/23 07:16:10;;;;;;;39.43;20.13;;;;;;;;;;5017180;28;20041;-75
2021/12/23 07:18:35;;;;;;;46.17;21.30;;;;;;;;;;5022468;28;20022;-74
2021/12/23 07:21:00;;;;;;;47.07;21.53;;;;;;;;;;5027212;28;20064;-74
2021/12/23 07:23:25;;;;;;;41.73;20.97;;;;;;;;;;5017021;28;20030;-75
2021/12/23 07:25:51;;;;;;;41.27;21.43;;;;;;;;;;5025394;28;20021;-75
2021/12/23 07:28:16;;;;;;;46.03;21.97;;;;;;;;;;5026748;28;20233;-74
2021/12/23 07:30:41;;;;;;;44.60;21.33;;;;;;;;;;5026070;28;20095;-73
2021/12/23 07:33:06;;;;;;;41.20;20.47;;;;;;;;;;5027603;28;20025;-74
2021/12/23 07:35:31;;;;;;;42.20;20.83;;;;;;;;;;5022863;28;20014;-74
2021/12/23 07:38:00;;;;;;;44.43;22.47;;;;;;;;;;5020687;28;20033;-75
2021/12/23 07:40:26;;;;;;;40.55;19.90;;;;;;;;;;5024517;28;20362;-74
2021/12/23 07:42:56;;;;;;;42.70;21.27;;;;;;;;;;5022354;28;20037;-76
2021/12/23 07:45:22;;;;;;;39.83;21.90;;;;;;;;;;5029568;28;20028;-75
2021/12/23 07:47:48;;;;;;;45.60;22.33;;;;;;;;;;5021473;28;20398;-74
2021/12/23 07:50:13;;;;;;;39.77;19.43;;;;;;;;;;5025960;28;20025;-75
2021/12/23 07:52:38;;;;;;;41.90;20.60;;;;;;;;;;5033503;28;20129;-74
2021/12/23 07:55:04;;;;;;;41.70;21.03;;;;;;;;;;5026904;28;20017;-75
2021/12/23 07:57:29;;;;;;;38.47;19.80;;;;;;;;;;5024064;28;20032;-75
2021/12/23 07:59:54;;;;;;;39.83;20.83;;;;;;;;;;5021126;28;20026;-74
2021/12/23 08:02:19;;;;;;;35.63;19.77;;;;;;;;;;5025657;28;20331;-74
2021/12/23 08:04:44;;;;;;;38.67;19.80;;;;;;;;;;5027212;28;20350;-75
2021/12/23 08:07:09;;;;;;;35.67;19.70;;;;;;;;;;5027363;28;20045;-75
2021/12/23 08:09:35;;;;;;;36.33;19.37;;;;;;;;;;5029643;28;20013;-76
2021/12/23 08:12:00;;;;;;;33.23;18.53;;;;;;;;;;5016788;28;20362;-75
2021/12/23 08:14:26;;;;;;;33.77;18.57;;;;;;;;;;5029442;28;20036;-76
2021/12/23 08:16:51;;;;;;;33.67;18.60;;;;;;;;;;5029292;28;20021;-75
2021/12/23 08:19:16;;;;;;;34.97;18.70;;;;;;;;;;5028493;28;20072;-74
2021/12/23 08:21:41;;;;;;;33.33;18.03;;;;;;;;;;5020492;28;20038;-76
2021/12/23 08:24:06;;;;;;;33.63;18.40;;;;;;;;;;5027120;28;20021;-75
2021/12/23 08:26:39;;;;;;;32.50;17.93;;;;;;;;;;5028863;28;20029;-72
2021/12/23 08:29:05;;;;;;;35.60;17.83;;;;;;;;;;5028842;28;20473;-73
2021/12/23 08:31:30;;;;;;;33.87;19.07;;;;;;;;;;5028132;28;20033;-71
2021/12/23 08:33:55;;;;;;;31.90;17.73;;;;;;;;;;5028796;28;20021;-74
2021/12/23 08:36:20;;;;;;;31.83;17.77;;;;;;;;;;5023377;28;20037;-72
2021/12/23 08:38:45;;;;;;;35.57;19.43;;;;;;;;;;5021935;28;20071;-72
2021/12/23 08:41:11;;;;;;;34.00;17.93;;;;;;;;;;5028242;28;20418;-72
2021/12/23 08:43:36;;;;;;;36.23;18.27;;;;;;;;;;5028680;28;20036;-72
2021/12/23 08:46:01;;;;;;;35.80;17.33;;;;;;;;;;5028910;28;20025;-73
2021/12/23 08:48:26;;;;;;;33.47;17.60;;;;;;;;;;5028587;28;20126;-72
2021/12/23 08:50:53;;;;;;;29.83;17.83;;;;;;;;;;5030975;28;20524;-72
2021/12/23 08:53:18;;;;;;;32.97;18.00;;;;;;;;;;5026242;28;20395;-72
2021/12/23 08:55:43;;;;;;;35.10;17.67;;;;;;;;;;5023680;28;20075;-72
2021/12/23 08:58:09;;;;;;;34.70;18.87;;;;;;;;;;5028239;28;20021;-72
2021/12/23 09:00:35;;;;;;;34.00;17.43;;;;;;;;;;5022449;28;20033;-71
2021/12/23 09:03:01;;;;;;;32.17;18.10;;;;;;;;;;5029019;28;20030;-72
2021/12/23 09:05:26;;;;;;;31.57;17.53;;;;;;;;;;5021955;28;20034;-71
2021/12/23 09:07:51;;;;;;;31.33;17.57;;;;;;;;;;5025346;28;20032;-73
2021/12/23 09:10:17;;;;;;;30.77;17.30;;;;;;;;;;5028573;28;20017;-72
2021/12/23 09:12:43;;;;;;;27.80;16.20;;;;;;;;;;5029013;28;20036;-72
2021/12/23 09:15:08;;;;;;;26.47;15.00;;;;;;;;;;5022904;28;20032;-72
2021/12/23 09:17:33;;;;;;;26.33;14.67;;;;;;;;;;5027848;28;20033;-72
2021/12/23 09:19:59;;;;;;;29.00;15.17;;;;;;;;;;5028753;28;20389;-72
2021/12/23 09:22:24;;;;;;;27.40;14.83;;;;;;;;;;5028748;28;20480;-72
2021/12/23 09:24:52;;;;;;;23.60;14.17;;;;;;;;;;5028547;28;20500;-71
2021/12/23 09:35:04;;;;;;;23.43;13.00;;;;;;;;;;5023173;28;20027;-72
2021/12/23 09:37:29;;;;;;;22.30;13.23;;;;;;;;;;5025495;28;20508;-63
2021/12/23 09:39:57;;;;;;;24.10;13.37;;;;;;;;;;5018431;28;20097;-63
2021/12/23 09:42:24;;;;;;;24.33;13.13;;;;;;;;;;5016364;28;20037;-63
2021/12/23 09:44:49;;;;;;;21.43;11.53;;;;;;;;;;5024558;28;20462;-64
2021/12/23 09:47:15;;;;;;;21.93;12.00;;;;;;;;;;5019208;28;20079;-64
2021/12/23 09:49:40;;;;;;;19.23;11.97;;;;;;;;;;5028955;28;20053;-64
2021/12/23 09:52:07;;;;;;;21.73;11.98;;;;;;;;;;5033220;28;20159;-63
2021/12/23 09:54:34;;;;;;;30.10;12.27;;;;;;;;;;5028239;28;20018;-63
2021/12/23 09:56:59;;;;;;;20.73;11.10;;;;;;;;;;5027465;28;20065;-63
2021/12/23 09:59:27;;;;;;;18.13;10.57;;;;;;;;;;5026888;28;20061;-63
2021/12/23 10:01:53;;;;;;;37.13;17.58;;;;;;;;;;5032635;28;20032;-64
2021/12/23 10:04:18;;;;;;;28.48;14.45;;;;;;;;;;5031446;28;20385;-64
2021/12/23 10:06:43;;;;;;;20.88;11.20;;;;;;;;;;5031805;28;20041;-64
2021/12/23 10:09:09;;;;;;;19.08;10.65;;;;;;;;;;5030039;28;20563;-63
2021/12/23 10:31:03;;;;;;;17.63;9.48;;;;;;;;;;5007470;28;20040;-63
2021/12/23 10:33:43;;;;;;;17.20;9.85;;;;;;;;;;5003273;28;20021;-63
2021/12/23 10:38:35;;;;;;;17.83;10.50;;;;;;;;;;5006248;28;20000;-63
2021/12/23 10:41:02;;;;;;;18.33;10.65;;;;;;;;;;5002363;28;20034;-64
2021/12/23 10:43:28;;;;;;;18.45;10.68;;;;;;;;;;5008954;28;20044;-64
2021/12/23 10:45:58;;;;;;;22.25;10.73;;;;;;;;;;5008891;28;20409;-65
2021/12/23 10:48:25;;;;;;;18.08;10.60;;;;;;;;;;5008671;28;20470;-64
2021/12/23 10:50:57;;;;;;;20.50;10.60;;;;;;;;;;5009460;28;20120;-64
2021/12/23 10:53:45;;;;;;;17.85;9.32;;;;;;;;;;5021251;28;20026;-64
2021/12/23 10:59:02;;;;;;;20.35;10.23;;;;;;;;;;5027182;28;20055;-65
2021/12/23 11:01:28;;;;;;;22.63;10.05;;;;;;;;;;5023053;28;20009;-64
2021/12/23 11:03:58;;;;;;;18.95;8.95;;;;;;;;;;5029837;28;20489;-65
2021/12/23 11:06:31;;;;;;;16.42;8.88;;;;;;;;;;5032755;28;20124;-64
2021/12/23 11:09:16;;;;;;;19.05;9.57;;;;;;;;;;5031925;28;20021;-64
2021/12/23 11:28:58;;;;;;;17.67;10.05;;;;;;;;;;5034638;28;20067;-65
2021/12/23 11:41:34;;;;;;;15.63;8.80;;;;;;;;;;5032838;28;20067;-63
2021/12/23 11:44:00;;;;;;;14.23;8.47;;;;;;;;;;5037673;28;20029;-64
2021/12/23 11:46:30;;;;;;;18.35;9.07;;;;;;;;;;5028335;28;20091;-63
2021/12/23 11:48:56;;;;;;;;;;;;;;;;;;5017548;28;20021;-64
2021/12/23 11:51:46;;;;;;;21.20;10.07;;;;;;;;;;5015392;28;19956;-64
2021/12/23 11:54:13;;;;;;;20.05;8.65;;;;;;;;;;5024000;28;20768;-64
2021/12/23 11:56:40;;;;;;;18.00;9.10;;;;;;;;;;5018578;28;20093;-63
2021/12/23 11:59:09;;;;;;;19.45;10.10;;;;;;;;;;5023604;28;20037;-64
2021/12/23 12:02:00;;;;;;;18.33;9.23;;;;;;;;;;5020393;28;20400;-64
2021/12/23 12:04:30;;;;;;;20.90;9.30;;;;;;;;;;5024064;28;20088;-67
2021/12/23 12:06:56;;;;;;;19.70;10.38;;;;;;;;;;5021379;28;20581;-65
2021/12/23 12:09:23;;;;;;;18.85;9.63;;;;;;;;;;5026567;28;20056;-64
2021/12/23 12:12:02;;;;;;;17.85;9.05;;;;;;;;;;5015742;28;20219;-64
2021/12/23 12:14:36;;;;;;;19.38;10.93;;;;;;;;;;5012663;28;20017;-63
2021/12/23 12:17:20;;;;;;;18.98;10.93;;;;;;;;;;5023835;28;20308;-64
2021/12/23 12:19:52;;;;;;;16.52;9.73;;;;;;;;;;5027272;28;20054;-64
2021/12/23 12:22:36;;;;;;;22.63;10.85;;;;;;;;;;5030771;28;20112;-64
2021/12/23 12:25:02;;;;;;;19.23;10.52;;;;;;;;;;5028319;28;20112;-64
2021/12/23 12:27:29;;;;;;;15.77;9.23;;;;;;;;;;5018652;28;20419;-63
2021/12/23 12:30:06;;;;;;;20.23;10.15;;;;;;;;;;5025914;28;20029;-64
2021/12/23 12:32:35;;;;;;;16.38;9.60;;;;;;;;;;5023674;28;20500;-64
2021/12/23 12:35:09;;;;;;;15.60;9.57;;;;;;;;;;5028891;28;20027;-64
2021/12/23 12:37:41;;;;;;;15.35;8.77;;;;;;;;;;5021152;28;20026;-64
2021/12/23 12:40:08;;;;;;;17.73;9.20;;;;;;;;;;5027399;28;20500;-63
2021/12/23 12:42:37;;;;;;;19.08;9.35;;;;;;;;;;5028480;28;20025;-64
2021/12/23 12:45:09;;;;;;;16.53;9.83;;;;;;;;;;5029225;28;20029;-64
2021/12/23 12:47:39;;;;;;;20.70;10.48;;;;;;;;;;5029191;28;20036;-63
2021/12/23 12:50:04;;;;;;;;;;;;;;;;;;5029506;28;20017;-64
2021/12/23 12:52:31;;;;;;;21.73;9.45;;;;;;;;;;5031801;28;20364;-64
2021/12/23 12:55:05;;;;;;;21.02;9.65;;;;;;;;;;5028961;28;20021;-63
2021/12/23 12:57:37;;;;;;;19.00;9.07;;;;;;;;;;5028417;28;20022;-64
2021/12/23 13:00:18;;;;;;;21.15;9.80;;;;;;;;;;5028854;28;20088;-63
2021/12/23 13:02:54;;;;;;;19.10;9.10;;;;;;;;;;5028587;28;20029;-63
2021/12/23 13:05:25;;;;;;;22.17;9.68;;;;;;;;;;5023066;28;20472;-65
2021/12/23 13:07:51;;;;;;;21.20;9.05;;;;;;;;;;5028415;28;20112;-63
2021/12/23 13:10:19;;;;;;;19.05;9.45;;;;;;;;;;5028583;28;20542;-64
2021/12/23 13:12:54;;;;;;;19.48;8.38;;;;;;;;;;5028229;28;20029;-64
2021/12/23 13:15:20;;;;;;;18.52;7.60;;;;;;;;;;5020967;28;20014;-64
2021/12/23 13:17:51;;;;;;;23.75;8.95;;;;;;;;;;5025542;28;20055;-65
2021/12/23 13:20:17;;;;;;;15.73;8.48;;;;;;;;;;5021585;28;20061;-64
2021/12/23 13:22:44;;;;;;;17.65;7.15;;;;;;;;;;5016900;28;20504;-62
2021/12/23 13:25:09;;;;;;;14.88;6.70;;;;;;;;;;5016884;28;20083;-63
2021/12/23 13:27:37;;;;;;;17.08;7.65;;;;;;;;;;5019976;28;20048;-63
2021/12/23 13:30:04;;;;;;;14.75;7.18;;;;;;;;;;5023094;28;20044;-64
2021/12/23 13:32:29;;;;;;;13.32;5.07;;;;;;;;;;5023220;28;20030;-64
2021/12/23 13:34:54;;;;;;;9.60;4.97;;;;;;;;;;5024676;28;20778;-63
2021/12/23 13:37:20;;;;;;;10.77;5.20;;;;;;;;;;5025726;28;20041;-63
2021/12/23 13:39:45;;;;;;;7.63;4.00;;;;;;;;;;5029508;28;20125;-63
2021/12/23 13:42:11;;;;;;;7.22;3.78;;;;;;;;;;5026326;28;20034;-63
2021/12/23 13:44:38;;;;;;;8.60;3.95;;;;;;;;;;5023924;28;20025;-64
2021/12/23 13:47:11;;;;;;;8.85;4.28;;;;;;;;;;5022529;28;20401;-64
2021/12/23 13:49:39;;;;;;;8.35;3.50;;;;;;;;;;5022736;28;20099;-64
2021/12/23 13:52:06;;;;;;;8.30;3.88;;;;;;;;;;5032095;28;20128;-63
2021/12/23 13:54:35;;;;;;;6.57;2.97;;;;;;;;;;5024859;28;20029;-63
2021/12/23 13:57:01;;;;;;;9.10;3.60;;;;;;;;;;5029088;28;20464;-63
2021/12/23 13:59:27;;;;;;;9.43;3.10;;;;;;;;;;5025137;28;20029;-63
2021/12/23 14:01:54;;;;;;;9.50;3.08;;;;;;;;;;5030959;28;20102;-64
2021/12/23 14:04:29;;;;;;;10.35;3.05;;;;;;;;;;5028450;28;20033;-64
2021/12/23 14:06:54;;;;;;;7.80;3.30;;;;;;;;;;5030166;28;20041;-63
2021/12/23 14:09:30;;;;;;;8.98;2.45;;;;;;;;;;5031087;28;20021;-63
2021/12/23 14:11:55;;;;;;;6.45;2.67;;;;;;;;;;5024885;28;20041;-64
2021/12/23 14:14:20;;;;;;;6.18;2.53;;;;;;;;;;5030246;28;20041;-63
2021/12/23 14:16:45;;;;;;;5.53;2.40;;;;;;;;;;5029710;28;20049;-64
2021/12/23 14:19:22;;;;;;;6.75;2.55;;;;;;;;;;5029510;28;20029;-63
2021/12/23 14:24:31;;;;;;;5.40;2.42;;;;;;;;;;5031618;28;20080;-63
2021/12/23 14:26:57;;;;;;;5.88;2.25;;;;;;;;;;5024105;28;20033;-64
2021/12/23 14:29:30;;;;;;;4.72;2.10;;;;;;;;;;5029369;28;21274;-64
2021/12/23 14:31:55;;;;;;;5.80;2.42;;;;;;;;;;5016849;28;20042;-63
2021/12/23 14:34:27;;;;;;;5.60;2.13;;;;;;;;;;5030129;28;20024;-64
2021/12/23 14:36:56;;;;;;;4.78;1.90;;;;;;;;;;5019863;28;20028;-64
2021/12/23 14:39:26;;;;;;;5.13;2.22;;;;;;;;;;5030381;28;20025;-64
2021/12/23 14:41:55;;;;;;;7.47;2.15;;;;;;;;;;5028094;28;20025;-64
2021/12/23 14:44:32;;;;;;;5.70;2.10;;;;;;;;;;5030776;28;20025;-64
2021/12/23 14:47:17;;;;;;;6.05;1.95;;;;;;;;;;5024601;28;20097;-65
2021/12/23 14:52:17;;;;;;;4.10;2.10;;;;;;;;;;5027955;28;20055;-63
2021/12/23 14:54:54;;;;;;;7.03;2.35;;;;;;;;;;5027215;28;20029;-64
2021/12/23 14:57:21;;;;;;;6.22;2.35;;;;;;;;;;5025084;28;20052;-65
2021/12/23 14:59:48;;;;;;;6.30;2.35;;;;;;;;;;5026084;28;20022;-64
2021/12/23 15:02:15;;;;;;;8.05;2.60;;;;;;;;;;5024367;28;20048;-63
2021/12/23 15:05:00;;;;;;;6.57;2.40;;;;;;;;;;5028312;28;20049;-64
2021/12/23 15:07:25;;;;;;;8.13;2.80;;;;;;;;;;5029257;28;20048;-64
2021/12/23 15:09:56;;;;;;;8.35;2.33;;;;;;;;;;5027130;28;20052;-63
2021/12/23 15:12:23;;;;;;;6.75;3.42;;;;;;;;;;5024529;28;20493;-65
2021/12/23 15:14:51;;;;;;;11.95;3.33;;;;;;;;;;5024430;28;20022;-64
2021/12/23 15:17:21;;;;;;;10.15;3.38;;;;;;;;;;5028529;28;20544;-63
2021/12/23 15:19:52;;;;;;;9.32;3.40;;;;;;;;;;5026590;28;20041;-63
2021/12/23 15:22:18;;;;;;;10.00;3.15;;;;;;;;;;5024404;28;20037;-64
2021/12/23 15:24:45;;;;;;;8.05;3.20;;;;;;;;;;5029854;28;20069;-64
2021/12/23 15:27:15;;;;;;;7.13;2.67;;;;;;;;;;5030205;28;20026;-63
2021/12/23 15:29:42;;;;;;;9.50;2.33;;;;;;;;;;5019024;28;20053;-65
2021/12/23 15:32:11;;;;;;;9.52;3.60;;;;;;;;;;5018203;28;20044;-65
2021/12/23 15:34:39;;;;;;;8.83;2.30;;;;;;;;;;5014367;28;20105;-64